createdAt,value
2022-09-21T00:00:51.272Z,6.06
2022-09-21T00:03:19.573Z,6.07
2022-09-21T00:05:47.430Z,6.04
2022-09-21T00:08:15.342Z,5.97
2022-09-21T00:10:43.163Z,5.99
2022-09-21T00:13:13.796Z,5.93
2022-09-21T00:15:41.861Z,5.86
2022-09-21T00:18:11.567Z,5.86
2022-09-21T00:20:43.379Z,5.78
2022-09-21T00:23:11.418Z,5.81
2022-09-21T00:25:39.266Z,5.80
2022-09-21T00:28:07.073Z,5.81
2022-09-21T00:30:34.975Z,5.78
2022-09-21T00:33:02.794Z,5.83
2022-09-21T00:35:32.156Z,5.74
2022-09-21T00:38:02.118Z,5.75
2022-09-21T00:40:30.851Z,5.79
2022-09-21T00:43:13.034Z,5.71
2022-09-21T00:45:41.444Z,5.69
2022-09-21T00:48:09.490Z,5.66
2022-09-21T00:50:39.937Z,5.63
2022-09-21T00:53:08.868Z,5.61
2022-09-21T00:55:41.826Z,5.58
2022-09-21T00:58:15.516Z,5.55
2022-09-21T01:00:43.799Z,5.53
2022-09-21T01:03:14.046Z,5.50
2022-09-21T01:05:43.246Z,5.53
2022-09-21T01:08:13.992Z,5.57
2022-09-21T01:10:52.983Z,5.62
2022-09-21T01:13:31.592Z,5.52
2022-09-21T01:16:06.344Z,5.51
2022-09-21T01:18:43.161Z,5.48
2022-09-21T01:21:21.613Z,5.44
2022-09-21T01:24:16.118Z,5.41
2022-09-21T01:27:11.634Z,5.35
2022-09-21T01:29:45.760Z,5.36
2022-09-21T01:32:20.630Z,5.35
2022-09-21T01:34:54.308Z,5.41
2022-09-21T01:37:26.431Z,5.44
2022-09-21T01:40:00.031Z,5.35
2022-09-21T01:42:30.967Z,5.32
2022-09-21T01:45:04.579Z,5.23
2022-09-21T01:47:35.976Z,5.34
2022-09-21T01:50:06.807Z,5.36
2022-09-21T01:52:39.947Z,5.28
2022-09-21T01:55:14.732Z,5.20
2022-09-21T01:57:48.808Z,5.16
2022-09-21T02:00:18.547Z,5.22
2022-09-21T02:02:52.276Z,5.18
2022-09-21T02:05:23.760Z,5.23
2022-09-21T02:07:53.246Z,5.21
2022-09-21T02:10:28.483Z,5.21
2022-09-21T02:13:00.889Z,5.21
2022-09-21T02:15:40.990Z,5.19
2022-09-21T02:18:19.029Z,5.27
2022-09-21T02:20:54.345Z,5.23
2022-09-21T02:23:32.748Z,5.15
2022-09-21T02:26:07.886Z,5.11
2022-09-21T02:28:43.445Z,5.07
2022-09-21T02:31:21.732Z,5.05
2022-09-21T02:33:59.706Z,5.06
2022-09-21T02:36:35.530Z,5.09
2022-09-21T02:39:10.585Z,5.12
2022-09-21T02:41:45.560Z,5.10
2022-09-21T02:44:20.571Z,5.07
2022-09-21T02:46:54.770Z,5.13
2022-09-21T02:49:28.625Z,5.06
2022-09-21T02:52:00.235Z,5.12
2022-09-21T02:54:31.441Z,5.01
2022-09-21T02:57:01.382Z,4.94
2022-09-21T02:59:29.419Z,4.91
2022-09-21T03:01:58.541Z,4.89
2022-09-21T03:04:27.794Z,4.94
2022-09-21T03:06:57.019Z,4.89
2022-09-21T03:09:24.963Z,4.96
2022-09-21T03:11:53.129Z,4.97
2022-09-21T03:14:20.957Z,4.93
2022-09-21T03:16:48.788Z,4.91
2022-09-21T03:19:17.976Z,4.95
2022-09-21T03:21:45.985Z,4.90
2022-09-21T03:24:33.860Z,4.86
2022-09-21T03:27:01.892Z,4.83
2022-09-21T03:29:29.795Z,4.80
2022-09-21T03:31:57.656Z,4.80
2022-09-21T03:34:27.021Z,4.77
2022-09-21T03:36:54.988Z,4.74
2022-09-21T03:39:22.972Z,4.71
2022-09-21T03:41:50.826Z,4.84
2022-09-21T03:44:19.972Z,4.80
2022-09-21T03:46:48.050Z,4.80
2022-09-21T03:49:15.882Z,4.74
2022-09-21T03:51:45.526Z,4.77
2022-09-21T03:54:13.282Z,4.78
2022-09-21T03:56:41.091Z,4.72
2022-09-21T03:59:13.762Z,4.68
2022-09-21T04:01:43.343Z,4.69
2022-09-21T04:04:11.268Z,4.63
2022-09-21T04:06:39.098Z,4.59
2022-09-21T04:09:08.584Z,4.55
2022-09-21T04:11:36.483Z,4.53
2022-09-21T04:14:05.477Z,4.52
2022-09-21T04:16:33.301Z,4.51
2022-09-21T04:19:01.127Z,4.47
2022-09-21T04:21:29.858Z,4.48
2022-09-21T04:23:57.721Z,4.53
2022-09-21T04:26:28.002Z,4.52
2022-09-21T04:28:56.298Z,4.53
2022-09-21T04:31:25.138Z,4.47
2022-09-21T04:33:54.351Z,4.48
2022-09-21T04:36:23.370Z,4.46
2022-09-21T04:38:51.817Z,4.52
2022-09-21T04:41:20.119Z,4.47
2022-09-21T04:43:49.666Z,4.54
2022-09-21T04:46:20.059Z,4.51
2022-09-21T04:48:49.698Z,4.49
2022-09-21T04:51:18.419Z,4.45
2022-09-21T04:53:46.828Z,4.45
2022-09-21T04:56:15.790Z,4.48
2022-09-21T04:58:43.906Z,4.42
2022-09-21T05:01:13.128Z,4.41
2022-09-21T05:03:41.032Z,4.37
2022-09-21T05:06:10.802Z,4.33
2022-09-21T05:08:55.871Z,4.32
2022-09-21T05:11:24.420Z,4.29
2022-09-21T05:13:52.782Z,4.30
2022-09-21T05:16:22.006Z,4.34
2022-09-21T05:18:49.949Z,4.34
2022-09-21T05:21:21.456Z,4.35
2022-09-21T05:23:49.496Z,4.37
2022-09-21T05:26:17.317Z,4.37
2022-09-21T05:28:45.796Z,4.44
2022-09-21T05:31:31.740Z,4.49
2022-09-21T05:34:06.354Z,4.53
2022-09-21T05:36:45.032Z,4.56
2022-09-21T05:39:13.317Z,4.61
2022-09-21T05:41:41.777Z,4.70
2022-09-21T05:44:13.560Z,4.78
2022-09-21T05:46:55.338Z,4.78
2022-09-21T05:49:33.625Z,4.81
2022-09-21T05:52:11.649Z,4.86
2022-09-21T05:54:52.585Z,4.91
2022-09-21T05:57:31.043Z,4.99
2022-09-21T06:00:08.988Z,5.06
2022-09-21T06:02:59.417Z,5.21
2022-09-21T06:05:27.589Z,5.28
2022-09-21T06:07:55.278Z,5.38
2022-09-21T06:10:24.153Z,5.48
2022-09-21T06:12:52.010Z,5.61
2022-09-21T06:15:19.980Z,5.78
2022-09-21T06:17:49.325Z,5.87
2022-09-21T06:20:17.413Z,6.02
2022-09-21T06:22:45.112Z,6.17
2022-09-21T06:25:12.981Z,6.29
2022-09-21T06:27:40.835Z,6.47
2022-09-21T06:30:09.041Z,6.64
2022-09-21T06:32:36.839Z,6.79
2022-09-21T06:35:07.179Z,6.94
2022-09-21T06:37:35.029Z,7.06
2022-09-21T06:40:03.350Z,7.16
2022-09-21T06:42:31.461Z,7.25
2022-09-21T06:44:59.245Z,7.35
2022-09-21T06:47:27.106Z,7.45
2022-09-21T06:49:56.459Z,7.66
2022-09-21T06:52:25.625Z,7.84
2022-09-21T06:54:53.570Z,8.12
2022-09-21T06:57:21.405Z,9.29
2022-09-21T06:59:49.415Z,11.11
2022-09-21T07:02:17.232Z,12.58
2022-09-21T07:04:45.072Z,13.80
2022-09-21T07:07:13.107Z,15.61
2022-09-21T07:12:35.174Z,19.05
2022-09-21T07:15:03.895Z,19.73
2022-09-21T07:17:36.379Z,19.95
2022-09-21T07:20:05.959Z,20.49
2022-09-21T07:22:33.833Z,22.06
2022-09-21T07:25:03.138Z,21.57
2022-09-21T07:27:32.654Z,22.11
2022-09-21T07:30:00.482Z,22.15
2022-09-21T07:32:28.430Z,22.49
2022-09-21T07:34:56.977Z,22.43
2022-09-21T07:37:25.438Z,22.93
2022-09-21T07:39:54.623Z,23.28
2022-09-21T07:42:25.485Z,23.32
2022-09-21T07:45:03.154Z,24.09
2022-09-21T07:47:32.228Z,25.61
2022-09-21T07:50:00.046Z,24.17
2022-09-21T07:52:28.374Z,24.11
2022-09-21T07:54:56.255Z,22.92
2022-09-21T07:57:43.275Z,25.78
2022-09-21T08:00:12.554Z,27.02
2022-09-21T08:02:45.170Z,25.99
2022-09-21T08:05:16.046Z,26.72
2022-09-21T08:07:44.031Z,27.61
2022-09-21T08:10:12.484Z,27.05
2022-09-21T08:12:43.766Z,26.83
2022-09-21T08:15:30.684Z,28.24
2022-09-21T08:18:02.230Z,28.53
2022-09-21T08:20:30.162Z,27.77
2022-09-21T08:22:57.990Z,28.31
2022-09-21T08:25:27.199Z,26.57
2022-09-21T08:28:00.523Z,27.79
2022-09-21T08:30:31.003Z,28.34
2022-09-21T08:32:58.947Z,27.57
2022-09-21T08:35:26.775Z,30.59
2022-09-21T08:37:54.913Z,30.17
2022-09-21T08:40:23.256Z,28.30
2022-09-21T08:43:02.765Z,27.77
2022-09-21T08:45:35.481Z,27.32
2022-09-21T08:48:10.852Z,29.32
2022-09-21T08:50:45.312Z,28.57
2022-09-21T08:53:16.420Z,31.52
2022-09-21T08:55:44.546Z,30.18
2022-09-21T08:58:23.464Z,29.21
2022-09-21T09:01:06.923Z,29.97
2022-09-21T09:03:54.564Z,30.68
2022-09-21T09:06:30.712Z,31.34
2022-09-21T09:09:10.721Z,29.65
2022-09-21T09:11:55.891Z,29.79
2022-09-21T09:14:40.777Z,28.76
2022-09-21T09:17:26.181Z,28.97
2022-09-21T09:19:59.347Z,29.42
2022-09-21T09:22:31.305Z,29.68
2022-09-21T09:25:03.978Z,28.68
2022-09-21T09:27:37.449Z,30.67
2022-09-21T09:30:17.320Z,30.59
2022-09-21T09:32:53.477Z,31.12
2022-09-21T09:35:27.562Z,31.56
2022-09-21T09:38:00.893Z,30.52
2022-09-21T09:40:48.049Z,29.98
2022-09-21T09:43:26.824Z,27.84
2022-09-21T09:46:12.311Z,26.58
2022-09-21T09:48:56.053Z,23.48
2022-09-21T09:51:26.752Z,27.15
2022-09-21T09:54:00.070Z,30.71
2022-09-21T09:56:28.454Z,30.38
2022-09-21T09:59:00.105Z,28.91
2022-09-21T10:01:42.649Z,24.47
2022-09-21T10:04:12.531Z,21.93
2022-09-21T10:06:46.132Z,20.16
2022-09-21T10:09:25.042Z,19.37
2022-09-21T10:11:53.934Z,18.18
2022-09-21T10:14:24.885Z,18.60
2022-09-21T10:16:56.687Z,20.22
2022-09-21T10:19:27.336Z,20.92
2022-09-21T10:21:58.751Z,25.03
2022-09-21T10:24:29.172Z,29.04
2022-09-21T10:27:06.205Z,30.54
2022-09-21T10:29:42.056Z,29.47
2022-09-21T10:32:26.298Z,31.53
2022-09-21T10:35:13.482Z,35.02
2022-09-21T10:37:43.227Z,34.07
2022-09-21T10:40:36.616Z,32.69
2022-09-21T10:43:06.154Z,32.38
2022-09-21T10:45:37.060Z,27.49
2022-09-21T10:48:14.346Z,22.98
2022-09-21T10:50:44.357Z,20.91
2022-09-21T10:53:14.682Z,20.02
2022-09-21T10:55:58.440Z,19.69
2022-09-21T10:58:35.257Z,19.04
2022-09-21T11:01:13.006Z,18.97
2022-09-21T11:03:52.131Z,19.66
2022-09-21T11:06:25.171Z,19.99
2022-09-21T11:08:58.681Z,19.22
2022-09-21T11:11:39.494Z,18.49
2022-09-21T11:14:16.938Z,18.48
2022-09-21T11:16:52.141Z,17.89
2022-09-21T11:19:31.631Z,18.82
2022-09-21T11:22:07.697Z,23.97
2022-09-21T11:24:44.655Z,30.37
2022-09-21T11:27:18.133Z,33.56
2022-09-21T11:29:56.353Z,34.73
2022-09-21T11:32:36.031Z,35.86
2022-09-21T11:35:25.666Z,32.10
2022-09-21T11:38:05.963Z,32.37
2022-09-21T11:40:55.751Z,32.73
2022-09-21T11:43:41.425Z,29.62
2022-09-21T11:46:21.084Z,28.80
2022-09-21T11:49:21.918Z,32.26
2022-09-21T11:52:09.060Z,33.75
2022-09-21T11:54:55.336Z,34.14
2022-09-21T11:57:28.509Z,28.05
2022-09-21T12:00:09.811Z,25.33
2022-09-21T12:03:21.926Z,24.95
2022-09-21T12:06:04.404Z,28.50
2022-09-21T12:08:47.668Z,30.24
2022-09-21T12:11:29.625Z,26.86
2022-09-21T12:14:03.733Z,24.83
2022-09-21T12:16:39.726Z,27.59
2022-09-21T12:19:15.258Z,25.75
2022-09-21T12:21:47.926Z,22.09
2022-09-21T12:24:21.863Z,19.98
2022-09-21T12:26:55.537Z,19.08
2022-09-21T12:29:30.446Z,19.21
2022-09-21T12:32:05.362Z,19.66
2022-09-21T12:34:41.887Z,19.71
2022-09-21T12:37:15.743Z,19.81
2022-09-21T12:39:50.747Z,20.20
2022-09-21T12:42:31.278Z,24.92
2022-09-21T12:45:04.400Z,30.31
2022-09-21T12:47:48.417Z,33.78
2022-09-21T12:50:21.485Z,36.68
2022-09-21T12:52:51.330Z,37.63
2022-09-21T12:55:33.117Z,34.11
2022-09-21T12:58:17.043Z,32.76
2022-09-21T13:00:54.993Z,36.31
2022-09-21T13:03:33.300Z,37.17
2022-09-21T13:06:24.380Z,37.08
2022-09-21T13:08:52.984Z,37.39
2022-09-21T13:11:24.091Z,38.91
2022-09-21T13:13:59.288Z,37.26
2022-09-21T13:16:30.276Z,36.14
2022-09-21T13:19:01.411Z,37.65
2022-09-21T13:21:31.892Z,36.38
2022-09-21T13:24:01.990Z,36.38
2022-09-21T13:26:37.969Z,36.70
2022-09-21T13:29:29.282Z,37.20
2022-09-21T13:32:00.153Z,36.04
2022-09-21T13:34:31.710Z,34.09
2022-09-21T13:37:29.917Z,34.54
2022-09-21T13:40:40.919Z,32.01
2022-09-21T13:43:23.869Z,33.55
2022-09-21T13:45:55.753Z,33.99
2022-09-21T13:48:29.416Z,34.91
2022-09-21T13:51:01.407Z,32.70
2022-09-21T13:53:38.302Z,33.29
2022-09-21T13:56:17.304Z,32.23
2022-09-21T13:58:50.288Z,26.44
2022-09-21T14:01:45.054Z,25.73
2022-09-21T14:04:20.375Z,28.40
2022-09-21T14:06:51.733Z,27.42
2022-09-21T14:09:25.440Z,27.34
2022-09-21T14:11:59.028Z,25.59
2022-09-21T14:14:33.741Z,24.78
2022-09-21T14:17:03.125Z,27.29
2022-09-21T14:20:07.943Z,27.87
2022-09-21T14:22:38.704Z,27.43
2022-09-21T14:25:54.364Z,27.79
2022-09-21T14:28:35.031Z,27.26
2022-09-21T14:31:07.881Z,26.37
2022-09-21T14:33:45.899Z,26.38
2022-09-21T14:36:20.603Z,24.69
2022-09-21T14:38:54.795Z,23.44
2022-09-21T14:41:25.002Z,23.89
2022-09-21T14:43:56.486Z,23.93
2022-09-21T14:46:59.599Z,24.19
2022-09-21T14:50:04.224Z,22.11
2022-09-21T14:52:42.045Z,21.18
2022-09-21T14:55:19.707Z,19.95
2022-09-21T14:58:00.582Z,19.08
2022-09-21T15:00:39.515Z,18.92
2022-09-21T15:03:40.878Z,18.60
2022-09-21T15:06:43.031Z,18.69
2022-09-21T15:10:00.522Z,18.88
2022-09-21T15:12:40.438Z,18.80
2022-09-21T15:15:30.788Z,18.38
2022-09-21T15:18:00.576Z,18.20
2022-09-21T15:20:32.009Z,18.26
2022-09-21T15:23:02.040Z,18.11
2022-09-21T15:25:32.976Z,17.87
2022-09-21T15:28:01.176Z,17.65
2022-09-21T15:30:33.041Z,17.40
2022-09-21T15:33:02.701Z,17.41
2022-09-21T15:35:33.581Z,17.32
2022-09-21T15:38:02.008Z,17.29
2022-09-21T15:40:35.357Z,17.35
2022-09-21T15:43:05.530Z,17.40
2022-09-21T15:45:38.804Z,17.23
2022-09-21T15:48:13.087Z,17.00
2022-09-21T15:50:45.208Z,16.89
2022-09-21T15:53:21.718Z,16.81
2022-09-21T15:55:50.538Z,16.84
2022-09-21T15:58:31.660Z,16.80
2022-09-21T16:01:01.251Z,16.64
2022-09-21T16:03:29.856Z,16.55
2022-09-21T16:06:02.300Z,16.35
2022-09-21T16:08:35.010Z,16.17
2022-09-21T16:11:16.515Z,16.17
2022-09-21T16:14:03.330Z,15.95
2022-09-21T16:16:31.849Z,15.98
2022-09-21T16:19:00.538Z,15.76
2022-09-21T16:21:33.555Z,15.66
2022-09-21T16:24:12.587Z,15.53
2022-09-21T16:26:42.518Z,15.40
2022-09-21T16:29:19.942Z,15.25
2022-09-21T16:31:50.317Z,15.13
2022-09-21T16:34:22.701Z,15.02
2022-09-21T16:36:53.871Z,14.93
2022-09-21T16:39:22.701Z,14.84
2022-09-21T16:41:58.286Z,14.77
2022-09-21T16:44:44.574Z,14.70
2022-09-21T16:47:14.806Z,14.65
2022-09-21T16:49:43.350Z,14.54
2022-09-21T16:52:12.763Z,14.45
2022-09-21T16:54:40.828Z,14.33
2022-09-21T16:57:08.652Z,14.24
2022-09-21T16:59:36.514Z,14.15
2022-09-21T17:02:05.880Z,14.06
2022-09-21T17:04:36.005Z,13.92
2022-09-21T17:07:05.861Z,13.80
2022-09-21T17:09:38.227Z,13.65
2022-09-21T17:12:07.921Z,13.56
2022-09-21T17:14:39.250Z,13.39
2022-09-21T17:17:14.145Z,13.30
2022-09-21T17:19:42.967Z,13.20
2022-09-21T17:22:17.032Z,13.03
2022-09-21T17:24:51.341Z,12.88
2022-09-21T17:27:21.805Z,12.78
2022-09-21T17:29:50.392Z,12.66
2022-09-21T17:32:20.636Z,12.55
2022-09-21T17:34:53.293Z,12.47
2022-09-21T17:37:21.905Z,12.32
2022-09-21T17:39:51.078Z,12.12
2022-09-21T17:42:21.634Z,11.98
2022-09-21T17:44:59.538Z,11.82
2022-09-21T17:47:29.229Z,11.71
2022-09-21T17:50:02.903Z,11.64
2022-09-21T17:52:49.150Z,11.57
2022-09-21T17:55:20.107Z,11.40
2022-09-21T17:57:59.312Z,11.41
2022-09-21T18:00:38.740Z,11.39
2022-09-21T18:03:21.681Z,11.26
2022-09-21T18:05:51.424Z,11.17
2022-09-21T18:08:19.712Z,11.13
2022-09-21T18:10:58.862Z,10.94
2022-09-21T18:13:38.100Z,10.87
2022-09-21T18:16:19.587Z,10.78
2022-09-21T18:18:56.223Z,10.84
2022-09-21T18:21:27.535Z,10.71
2022-09-21T18:24:21.377Z,10.61
2022-09-21T18:26:52.455Z,10.60
2022-09-21T18:29:45.694Z,10.44
2022-09-21T18:32:37.603Z,10.36
2022-09-21T18:35:22.640Z,10.31
2022-09-21T18:38:06.036Z,10.25
2022-09-21T18:40:40.212Z,10.17
2022-09-21T18:43:26.531Z,10.22
2022-09-21T18:46:01.631Z,10.16
2022-09-21T18:48:48.561Z,10.11
2022-09-21T18:51:24.917Z,10.03
2022-09-21T18:53:55.852Z,10.04
2022-09-21T18:56:25.038Z,10.06
2022-09-21T18:58:57.985Z,10.05
2022-09-21T19:01:29.501Z,10.07
2022-09-21T19:03:58.149Z,9.99
2022-09-21T19:06:35.516Z,9.91
2022-09-21T19:09:11.137Z,9.82
2022-09-21T19:11:44.666Z,9.73
2022-09-21T19:14:21.454Z,9.68
2022-09-21T19:17:03.295Z,9.67
2022-09-21T19:19:39.764Z,9.66
2022-09-21T19:22:16.436Z,9.78
2022-09-21T19:24:55.306Z,9.69
2022-09-21T19:27:31.122Z,9.63
2022-09-21T19:30:06.161Z,9.60
2022-09-21T19:32:37.698Z,9.52
2022-09-21T19:35:19.885Z,9.54
2022-09-21T19:37:48.634Z,9.48
2022-09-21T19:40:18.265Z,9.45
2022-09-21T19:43:20.932Z,9.56
2022-09-21T19:46:04.796Z,9.54
2022-09-21T19:48:42.328Z,9.43
2022-09-21T19:51:17.992Z,9.37
2022-09-21T19:54:04.569Z,9.26
2022-09-21T19:56:55.302Z,9.16
2022-09-21T19:59:42.144Z,9.22
2022-09-21T20:02:14.316Z,9.21
2022-09-21T20:04:49.957Z,9.15
2022-09-21T20:07:25.952Z,9.15
2022-09-21T20:10:06.490Z,9.07
2022-09-21T20:12:42.563Z,9.09
2022-09-21T20:15:15.688Z,9.04
2022-09-21T20:17:51.312Z,8.98
2022-09-21T20:20:23.161Z,8.93
2022-09-21T20:22:51.932Z,8.87
2022-09-21T20:25:23.625Z,8.77
2022-09-21T20:27:55.186Z,8.78
2022-09-21T20:30:26.611Z,8.72
2022-09-21T20:32:58.855Z,8.79
2022-09-21T20:35:28.864Z,8.67
2022-09-21T20:38:01.910Z,8.58
2022-09-21T20:40:31.758Z,8.56
2022-09-21T20:43:00.840Z,8.45
2022-09-21T20:45:29.866Z,8.42
2022-09-21T20:48:12.790Z,8.40
2022-09-21T20:50:41.621Z,8.31
2022-09-21T20:53:09.720Z,8.35
2022-09-21T20:55:37.585Z,8.33
2022-09-21T20:58:05.604Z,8.29
2022-09-21T21:00:33.883Z,8.24
2022-09-21T21:03:03.618Z,8.20
2022-09-21T21:05:31.501Z,8.13
2022-09-21T21:07:59.428Z,8.04
2022-09-21T21:10:27.223Z,8.06
2022-09-21T21:12:55.057Z,8.16
2022-09-21T21:15:22.937Z,8.11
2022-09-21T21:17:50.774Z,8.16
2022-09-21T21:20:19.945Z,8.18
2022-09-21T21:22:50.731Z,8.06
2022-09-21T21:25:19.038Z,8.04
2022-09-21T21:27:47.069Z,7.95
2022-09-21T21:30:15.052Z,7.86
2022-09-21T21:32:43.037Z,7.75
2022-09-21T21:35:10.931Z,7.70
2022-09-21T21:37:40.316Z,7.95
2022-09-21T21:40:10.109Z,7.93
2022-09-21T21:42:38.046Z,7.78
2022-09-21T21:45:06.664Z,7.74
2022-09-21T21:47:39.714Z,7.75
2022-09-21T21:50:09.628Z,7.77
2022-09-21T21:52:37.514Z,7.75
2022-09-21T21:55:07.752Z,7.71
2022-09-21T21:57:35.706Z,7.67
2022-09-21T22:00:05.504Z,7.58
2022-09-21T22:02:33.829Z,7.48
2022-09-21T22:05:01.817Z,7.46
2022-09-21T22:07:29.611Z,7.46
2022-09-21T22:09:57.433Z,7.37
2022-09-21T22:12:26.564Z,7.36
2022-09-21T22:14:54.365Z,7.46
2022-09-21T22:17:23.085Z,7.48
2022-09-21T22:19:51.347Z,7.40
2022-09-21T22:22:19.156Z,7.39
2022-09-21T22:24:47.941Z,7.37
2022-09-21T22:27:16.360Z,7.43
2022-09-21T22:29:45.834Z,7.38
2022-09-21T22:32:13.642Z,7.32
2022-09-21T22:34:41.729Z,7.26
2022-09-21T22:37:09.517Z,7.21
2022-09-21T22:39:37.358Z,7.15
2022-09-21T22:42:05.454Z,7.14
2022-09-21T22:44:33.308Z,7.20
2022-09-21T22:47:02.427Z,7.23
2022-09-21T22:49:30.227Z,7.20
2022-09-21T22:51:58.018Z,7.29
2022-09-21T22:54:26.536Z,7.18
2022-09-21T22:56:54.315Z,7.21
2022-09-21T22:59:22.163Z,7.12
2022-09-21T23:01:49.959Z,7.04
2022-09-21T23:04:20.602Z,6.98
2022-09-21T23:06:49.519Z,6.92
2022-09-21T23:09:19.501Z,7.01
2022-09-21T23:11:53.053Z,6.94
2022-09-21T23:14:22.721Z,6.87
2022-09-21T23:16:50.693Z,6.82
2022-09-21T23:19:19.827Z,6.79
2022-09-21T23:21:50.266Z,6.81
2022-09-21T23:24:19.049Z,6.80
2022-09-21T23:26:47.832Z,6.79
2022-09-21T23:29:16.996Z,6.73
2022-09-21T23:31:46.435Z,6.68
2022-09-21T23:34:15.344Z,6.68
2022-09-21T23:36:45.653Z,6.64
2022-09-21T23:39:15.360Z,6.67
2022-09-21T23:41:43.718Z,6.66
2022-09-21T23:44:11.864Z,6.59
2022-09-21T23:46:40.954Z,6.57
2022-09-21T23:49:09.021Z,6.65
2022-09-21T23:51:36.926Z,6.63
2022-09-21T23:54:06.285Z,6.72
2022-09-21T23:56:34.708Z,6.72
2022-09-21T23:59:02.546Z,6.66
